Time,TemperatureF,DewpointF,PressureIn,WindDirection,WindDirectionDegrees,WindSpeedMPH,WindSpeedGustMPH,Humidity,HourlyPrecipIn,Conditions,Clouds,dailyrainin,SoftwareType,DateUTC
2013-02-17 00:00:00,16.6,-0.7,29.84,NW,320,3.0,15.0,46,0.00,OVC,,0.00,WeatherDisplay:10.37,2013-02-17 05:00:00,
2013-02-17 00:01:00,16.5,-0.7,29.83,West,270,9.2,9.2,46,0.00,OVC,,0.00,WeatherDisplay:10.37,2013-02-17 05:01:00,
2013-02-17 00:06:00,16.4,-0.8,29.83,NW,315,10.4,10.4,46,0.00,OVC,,0.00,WeatherDisplay:10.37,2013-02-17 05:06:00,
2013-02-17 00:11:00,16.4,-0.8,29.83,North,360,9.2,9.2,46,0.00,OVC,,0.00,WeatherDisplay:10.37,2013-02-17 05:11:00,
2013-02-17 00:16:00,16.4,-0.8,29.83,NW,315,10.4,10.4,46,0.00,OVC,,0.00,WeatherDisplay:10.37,2013-02-17 05:16:00,
2013-02-17 00:21:00,16.2,-1.0,29.83,NNW,338,12.7,12.7,46,0.00,OVC,,0.00,WeatherDisplay:10.37,2013-02-17 05:21:00,
2013-02-17 00:26:00,16.1,-1.0,29.83,NNW,338,17.3,17.3,46,0.00,OVC,,0.00,WeatherDisplay:10.37,2013-02-17 05:26:00,
2013-02-17 00:30:00,16.0,-1.2,29.83,NNW,331,10.0,18.0,46,0.00,OVC,,0.00,WeatherDisplay:10.37,2013-02-17 05:30:00,
2013-02-17 00:35:00,15.9,-1.3,29.83,NNW,338,8.1,8.1,46,0.00,OVC,,0.00,WeatherDisplay:10.37,2013-02-17 05:35:00,
2013-02-17 00:40:00,16.0,-1.1,29.83,NNW,338,10.4,10.4,46,0.00,OVC,,0.00,WeatherDisplay:10.37,2013-02-17 05:40:00,
2013-02-17 00:45:00,15.9,-1.3,29.83,NW,315,6.9,6.9,46,0.00,OVC,,0.00,WeatherDisplay:10.37,2013-02-17 05:45:00,
2013-02-17 00:50:00,15.6,-1.5,29.83,NNE,22,10.4,10.4,46,0.00,OVC,,0.00,WeatherDisplay:10.37,2013-02-17 05:50:00,
2013-02-17 00:55:00,15.3,-1.8,29.83,NNE,22,15.0,15.0,46,0.00,OVC,,0.00,WeatherDisplay:10.37,2013-02-17 05:55:00,
2013-02-17 01:00:00,15.4,-1.7,29.83,NNE,22,10.4,10.4,46,0.00,OVC,,0.00,WeatherDisplay:10.37,2013-02-17 06:00:00,
2013-02-17 01:05:00,15.3,-1.8,29.80,NNW,338,6.9,6.9,46,0.00,OVC,,0.00,WeatherDisplay:10.37,2013-02-17 06:05:00,
2013-02-17 01:10:00,15.0,-2.1,29.80,NW,315,12.7,12.7,46,0.00,OVC,,0.00,WeatherDisplay:10.37,2013-02-17 06:10:00,
2013-02-17 01:15:00,14.8,-2.3,29.80,NW,315,13.8,13.8,46,0.00,OVC,,0.00,WeatherDisplay:10.37,2013-02-17 06:15:00,
2013-02-17 01:20:00,14.7,-2.4,29.80,NW,315,11.5,11.5,46,0.00,OVC,,0.00,WeatherDisplay:10.37,2013-02-17 06:20:00,
2013-02-17 01:25:00,14.5,-2.6,29.80,NNW,338,19.6,19.6,46,0.00,OVC,,0.00,WeatherDisplay:10.37,2013-02-17 06:25:00,
2013-02-17 01:30:00,14.6,-2.4,29.80,NW,315,12.5,12.5,46,0.00,OVC,,0.00,WeatherDisplay:10.37,2013-02-17 06:30:00,
2013-02-17 01:35:00,14.5,-2.6,29.80,WNW,292,15.0,15.0,46,0.00,OVC,,0.00,WeatherDisplay:10.37,2013-02-17 06:35:00,
2013-02-17 01:40:00,14.5,-2.5,29.80,NW,315,17.3,17.3,46,0.00,OVC,,0.00,WeatherDisplay:10.37,2013-02-17 06:40:00,
2013-02-17 01:45:00,14.3,-2.7,29.80,NW,315,15.0,15.0,46,0.00,OVC,,0.00,WeatherDisplay:10.37,2013-02-17 06:45:00,
2013-02-17 01:50:00,14.6,-2.4,29.80,NNE,22,24.2,24.2,46,0.00,OVC,,0.00,WeatherDisplay:10.37,2013-02-17 06:50:00,
2013-02-17 01:55:00,14.3,-2.7,29.80,NNE,22,13.8,13.8,46,0.00,OVC,,0.00,WeatherDisplay:10.37,2013-02-17 06:55:00,
2013-02-17 02:00:00,14.5,-2.6,29.80,WNW,292,16.1,16.1,46,0.00,OVC,,0.00,WeatherDisplay:10.37,2013-02-17 07:00:00,
2013-02-17 02:05:00,14.6,-2.5,29.76,NNW,338,12.7,12.7,46,0.00,OVC,,0.00,WeatherDisplay:10.37,2013-02-17 07:05:00,
2013-02-17 02:10:00,14.5,-2.6,29.76,NNW,338,10.4,10.4,46,0.00,OVC,,0.00,WeatherDisplay:10.37,2013-02-17 07:10:00,
2013-02-17 02:15:00,14.5,-2.6,29.76,NNE,22,10.4,10.4,46,0.00,OVC,,0.00,WeatherDisplay:10.37,2013-02-17 07:15:00,
2013-02-17 02:20:00,14.4,-2.7,29.76,North,360,12.7,12.7,46,0.00,OVC,,0.00,WeatherDisplay:10.37,2013-02-17 07:20:00,
2013-02-17 02:25:00,14.3,-2.7,29.76,NNW,338,11.5,11.5,46,0.00,OVC,,0.00,WeatherDisplay:10.37,2013-02-17 07:25:00,
2013-02-17 02:30:00,14.1,-2.9,29.76,NW,315,12.7,12.7,46,0.00,OVC,,0.00,WeatherDisplay:10.37,2013-02-17 07:30:00,
2013-02-17 02:35:00,14.3,-2.8,29.76,NW,315,16.1,16.1,46,0.00,OVC,,0.00,WeatherDisplay:10.37,2013-02-17 07:35:00,
2013-02-17 02:40:00,14.0,-3.0,29.76,NNW,338,15.0,15.0,46,0.00,OVC,,0.00,WeatherDisplay:10.37,2013-02-17 07:40:00,
2013-02-17 02:45:00,13.9,-3.1,29.76,NW,315,19.6,19.6,46,0.00,OVC,,0.00,WeatherDisplay:10.37,2013-02-17 07:45:00,
2013-02-17 02:50:00,13.9,-3.1,29.76,NW,315,12.7,12.7,46,0.00,OVC,,0.00,WeatherDisplay:10.37,2013-02-17 07:50:00,
2013-02-17 02:55:00,13.9,-3.1,29.76,West,270,16.1,16.1,46,0.00,OVC,,0.00,WeatherDisplay:10.37,2013-02-17 07:55:00,
2013-02-17 03:00:00,13.8,-3.2,29.76,West,270,19.6,19.6,46,0.00,OVC,,0.00,WeatherDisplay:10.37,2013-02-17 08:00:00,
2013-02-17 03:05:00,13.8,-3.2,29.74,WNW,292,16.3,16.3,46,0.00,OVC,,0.00,WeatherDisplay:10.37,2013-02-17 08:05:00,
2013-02-17 03:10:00,13.8,-3.2,29.74,WNW,292,19.6,19.6,46,0.00,OVC,,0.00,WeatherDisplay:10.37,2013-02-17 08:10:00,
2013-02-17 03:15:00,13.8,-3.2,29.74,NW,315,10.4,10.4,46,0.00,OVC,,0.00,WeatherDisplay:10.37,2013-02-17 08:15:00,
2013-02-17 03:20:00,13.3,-3.7,29.74,WNW,292,17.3,17.3,46,0.00,OVC,,0.00,WeatherDisplay:10.37,2013-02-17 08:20:00,
2013-02-17 03:25:00,13.4,-3.6,29.74,WNW,292,18.4,18.4,46,0.00,OVC,,0.00,WeatherDisplay:10.37,2013-02-17 08:25:00,
2013-02-17 03:30:00,13.2,-3.7,29.74,North,360,8.1,8.1,46,0.00,OVC,,0.00,WeatherDisplay:10.37,2013-02-17 08:30:00,
2013-02-17 03:35:00,12.9,-4.0,29.74,North,360,16.1,16.1,46,0.00,OVC,,0.00,WeatherDisplay:10.37,2013-02-17 08:35:00,
2013-02-17 03:40:00,13.3,-3.7,29.74,WNW,292,15.0,15.0,46,0.00,OVC,,0.00,WeatherDisplay:10.37,2013-02-17 08:40:00,
2013-02-17 03:45:00,12.9,-4.0,29.74,WNW,292,12.7,12.7,46,0.00,OVC,,0.00,WeatherDisplay:10.37,2013-02-17 08:45:00,
2013-02-17 03:50:00,12.7,-4.3,29.74,North,360,10.4,10.4,46,0.00,OVC,,0.00,WeatherDisplay:10.37,2013-02-17 08:50:00,
2013-02-17 03:55:00,12.8,-4.1,29.74,North,360,20.7,20.7,46,0.00,OVC,,0.00,WeatherDisplay:10.37,2013-02-17 08:55:00,
2013-02-17 04:00:00,12.8,-3.7,29.74,NW,315,20.7,20.7,47,0.00,OVC,,0.00,WeatherDisplay:10.37,2013-02-17 09:00:00,
2013-02-17 04:05:00,12.8,-3.7,29.74,NW,315,15.0,15.0,47,0.00,SCT,,0.00,WeatherDisplay:10.37,2013-02-17 09:05:00,
2013-02-17 04:10:00,12.7,-3.8,29.74,NE,45,26.5,26.5,47,0.00,SCT,,0.00,WeatherDisplay:10.37,2013-02-17 09:10:00,
2013-02-17 04:15:00,12.5,-3.5,29.74,North,360,26.5,26.5,48,0.00,SCT,,0.00,WeatherDisplay:10.37,2013-02-17 09:15:00,
2013-02-17 04:20:00,12.6,-3.4,29.74,NNW,338,10.4,10.4,48,0.00,SCT,,0.00,WeatherDisplay:10.37,2013-02-17 09:20:00,
2013-02-17 04:25:00,12.3,-3.7,29.74,North,360,6.9,6.9,48,0.00,SCT,,0.00,WeatherDisplay:10.37,2013-02-17 09:25:00,
2013-02-17 04:30:00,12.0,-3.9,29.74,West,270,13.8,13.8,48,0.00,SCT,,0.00,WeatherDisplay:10.37,2013-02-17 09:30:00,
2013-02-17 04:35:00,12.1,-3.9,29.74,North,360,23.0,23.0,48,0.00,SCT,,0.00,WeatherDisplay:10.37,2013-02-17 09:35:00,
2013-02-17 04:40:00,12.0,-3.9,29.74,NW,315,13.8,13.8,48,0.00,SCT,,0.00,WeatherDisplay:10.37,2013-02-17 09:40:00,
2013-02-17 04:45:00,11.9,-4.1,29.74,West,270,8.4,8.4,48,0.00,SCT,,0.00,WeatherDisplay:10.37,2013-02-17 09:45:00,
2013-02-17 04:50:00,11.8,-4.2,29.74,NW,315,15.0,15.0,48,0.00,SCT,,0.00,WeatherDisplay:10.37,2013-02-17 09:50:00,
2013-02-17 04:55:00,11.5,-4.4,29.74,NNW,338,16.1,16.1,48,0.00,SCT,,0.00,WeatherDisplay:10.37,2013-02-17 09:55:00,
2013-02-17 05:00:00,11.4,-4.5,29.74,NW,315,15.0,15.0,48,0.00,SCT,,0.00,WeatherDisplay:10.37,2013-02-17 10:00:00,
2013-02-17 05:05:00,11.4,-3.7,29.73,NW,315,12.7,12.7,50,0.00,OVC,,0.00,WeatherDisplay:10.37,2013-02-17 10:05:00,
2013-02-17 05:10:00,11.5,-3.6,29.73,NW,315,13.8,13.8,50,0.00,OVC,,0.00,WeatherDisplay:10.37,2013-02-17 10:10:00,
2013-02-17 05:15:00,11.3,-3.8,29.73,NW,315,20.0,20.0,50,0.00,OVC,,0.00,WeatherDisplay:10.37,2013-02-17 10:15:00,
2013-02-17 05:20:00,11.1,-3.5,29.73,NNW,338,15.0,15.0,51,0.00,OVC,,0.00,WeatherDisplay:10.37,2013-02-17 10:20:00,
2013-02-17 05:25:00,10.9,-3.8,29.73,NW,315,12.7,12.7,51,0.00,OVC,,0.00,WeatherDisplay:10.37,2013-02-17 10:25:00,
2013-02-17 05:30:00,10.9,-3.3,29.73,NNW,338,17.3,17.3,52,0.00,OVC,,0.00,WeatherDisplay:10.37,2013-02-17 10:30:00,
2013-02-17 05:35:00,10.8,-3.4,29.73,NNE,22,18.4,18.4,52,0.00,OVC,,0.00,WeatherDisplay:10.37,2013-02-17 10:35:00,
2013-02-17 05:40:00,10.7,-3.5,29.73,NW,315,18.4,18.4,52,0.00,OVC,,0.00,WeatherDisplay:10.37,2013-02-17 10:40:00,
2013-02-17 05:45:00,10.6,-3.6,29.73,NW,315,18.4,18.4,52,0.00,OVC,,0.00,WeatherDisplay:10.37,2013-02-17 10:45:00,
2013-02-17 05:50:00,10.5,-3.7,29.73,NW,315,23.0,23.0,52,0.00,OVC,,0.00,WeatherDisplay:10.37,2013-02-17 10:50:00,
2013-02-17 05:55:00,10.5,-3.7,29.73,NW,315,18.9,18.9,52,0.00,OVC,,0.00,WeatherDisplay:10.37,2013-02-17 10:55:00,
2013-02-17 06:00:00,10.5,-3.7,29.73,NE,45,16.1,16.1,52,0.00,OVC,,0.00,WeatherDisplay:10.37,2013-02-17 11:00:00,
2013-02-17 06:05:00,10.1,-4.0,29.72,NW,315,17.3,17.3,52,0.00,CLR,,0.00,WeatherDisplay:10.37,2013-02-17 11:05:00,
2013-02-17 06:10:00,10.0,-0.4,29.72,NNW,338,17.3,17.3,62,0.00,CLR,,0.00,WeatherDisplay:10.37,2013-02-17 11:10:00,
2013-02-17 06:15:00,9.8,-0.6,29.72,NW,315,17.3,17.3,62,0.00,CLR,,0.00,WeatherDisplay:10.37,2013-02-17 11:15:00,
2013-02-17 06:20:00,9.8,-0.6,29.72,NE,45,15.0,15.0,62,0.00,CLR,,0.00,WeatherDisplay:10.37,2013-02-17 11:20:00,
2013-02-17 06:25:00,9.6,-0.9,29.72,NNE,22,24.2,24.2,62,0.00,CLR,,0.00,WeatherDisplay:10.37,2013-02-17 11:25:00,
2013-02-17 06:30:00,9.6,-0.9,29.72,North,360,28.8,28.8,62,0.00,CLR,,0.00,WeatherDisplay:10.37,2013-02-17 11:30:00,
2013-02-17 06:35:00,9.7,-0.8,29.72,North,360,24.2,24.2,62,0.00,CLR,,0.00,WeatherDisplay:10.37,2013-02-17 11:35:00,
2013-02-17 06:40:00,9.3,-1.1,29.72,NW,315,20.7,20.7,62,0.00,CLR,,0.00,WeatherDisplay:10.37,2013-02-17 11:40:00,
2013-02-17 06:45:00,9.2,-1.2,29.72,North,360,19.6,19.6,62,0.00,CLR,,0.00,WeatherDisplay:10.37,2013-02-17 11:45:00,
2013-02-17 06:50:00,9.2,-1.2,29.72,NNW,338,18.4,18.4,62,0.00,CLR,,0.00,WeatherDisplay:10.37,2013-02-17 11:50:00,
2013-02-17 06:55:00,9.1,-1.3,29.72,NW,315,19.6,19.6,62,0.00,CLR,,0.00,WeatherDisplay:10.37,2013-02-17 11:55:00,
2013-02-17 07:00:00,8.9,-1.4,29.72,East,90,31.1,31.1,62,0.00,CLR,,0.00,WeatherDisplay:10.37,2013-02-17 12:00:00,
2013-02-17 07:05:00,9.1,-1.3,29.71,NW,315,17.3,17.3,62,0.00,OVC,,0.00,WeatherDisplay:10.37,2013-02-17 12:05:00,
2013-02-17 07:10:00,8.9,-1.5,29.71,NNW,338,22.2,22.2,62,0.00,OVC,,0.00,WeatherDisplay:10.37,2013-02-17 12:10:00,
2013-02-17 07:15:00,8.7,-1.7,29.71,North,360,26.5,26.5,62,0.00,OVC,,0.00,WeatherDisplay:10.37,2013-02-17 12:15:00,
2013-02-17 07:20:00,8.7,-1.7,29.71,WNW,292,21.9,21.9,62,0.00,OVC,,0.00,WeatherDisplay:10.37,2013-02-17 12:20:00,
2013-02-17 07:25:00,8.9,-1.5,29.71,NNW,338,16.1,16.1,62,0.00,OVC,,0.00,WeatherDisplay:10.37,2013-02-17 12:25:00,
2013-02-17 07:30:00,8.6,-1.8,29.71,NNW,338,20.0,20.0,62,0.00,OVC,,0.00,WeatherDisplay:10.37,2013-02-17 12:30:00,
2013-02-17 07:35:00,8.6,-1.8,29.71,NW,315,18.4,18.4,62,0.00,OVC,,0.00,WeatherDisplay:10.37,2013-02-17 12:35:00,
2013-02-17 07:40:00,8.4,-1.9,29.71,NW,315,19.6,19.6,62,0.00,OVC,,0.00,WeatherDisplay:10.37,2013-02-17 12:40:00,
2013-02-17 07:45:00,8.8,-1.6,29.71,North,360,15.0,15.0,62,0.00,OVC,,0.00,WeatherDisplay:10.37,2013-02-17 12:45:00,
2013-02-17 07:50:00,8.5,6.5,29.71,NNW,338,20.7,20.7,91,0.00,OVC,,0.00,WeatherDisplay:10.37,2013-02-17 12:50:00,
2013-02-17 07:55:00,8.7,-4.2,29.71,NW,315,24.5,24.5,55,0.00,OVC,,0.00,WeatherDisplay:10.37,2013-02-17 12:55:00,
2013-02-17 08:00:00,8.6,-43.2,29.71,NW,315,20.7,20.7,7,0.00,OVC,,0.00,WeatherDisplay:10.37,2013-02-17 13:00:00,
2013-02-17 08:05:00,8.3,1.1,29.69,NW,315,20.9,20.9,72,0.00,OVC,,0.00,WeatherDisplay:10.37,2013-02-17 13:05:00,
2013-02-17 08:10:00,8.5,1.4,29.69,NW,315,12.7,12.7,72,0.00,OVC,,0.00,WeatherDisplay:10.37,2013-02-17 13:10:00,
2013-02-17 08:15:00,8.7,1.5,29.69,NW,315,16.1,16.1,72,0.00,OVC,,0.00,WeatherDisplay:10.37,2013-02-17 13:15:00,
2013-02-17 08:20:00,8.9,1.7,29.69,WNW,292,16.1,16.1,72,0.00,OVC,,0.00,WeatherDisplay:10.37,2013-02-17 13:20:00,
2013-02-17 08:25:00,8.8,1.6,29.69,NW,315,23.0,23.0,72,0.00,OVC,,0.00,WeatherDisplay:10.37,2013-02-17 13:25:00,
2013-02-17 08:30:00,8.8,1.6,29.69,NNW,338,18.4,18.4,72,0.00,OVC,,0.00,WeatherDisplay:10.37,2013-02-17 13:30:00,
2013-02-17 08:35:00,8.8,1.6,29.69,WNW,292,31.1,31.1,72,0.00,OVC,,0.00,WeatherDisplay:10.37,2013-02-17 13:35:00,
2013-02-17 08:40:00,8.9,1.7,29.69,NNE,22,16.1,16.1,72,0.00,OVC,,0.00,WeatherDisplay:10.37,2013-02-17 13:40:00,
2013-02-17 08:45:00,8.8,1.6,29.69,NW,315,19.6,19.6,72,0.00,OVC,,0.00,WeatherDisplay:10.37,2013-02-17 13:45:00,
2013-02-17 08:50:00,8.7,1.5,29.69,NNW,338,32.2,32.2,72,0.00,OVC,,0.00,WeatherDisplay:10.37,2013-02-17 13:50:00,
2013-02-17 08:55:00,8.9,1.7,29.69,North,360,19.6,19.6,72,0.00,OVC,,0.00,WeatherDisplay:10.37,2013-02-17 13:55:00,
2013-02-17 09:00:00,8.9,1.7,29.69,NW,315,24.2,24.2,72,0.00,OVC,,0.00,WeatherDisplay:10.37,2013-02-17 14:00:00,
2013-02-17 09:05:00,9.0,1.8,29.66,NW,315,23.0,23.0,72,0.00,OVC,,0.00,WeatherDisplay:10.37,2013-02-17 14:05:00,
2013-02-17 09:10:00,9.3,2.1,29.66,NNW,338,17.3,17.3,72,0.00,OVC,,0.00,WeatherDisplay:10.37,2013-02-17 14:10:00,
2013-02-17 09:15:00,9.2,2.0,29.66,NW,315,20.7,20.7,72,0.00,OVC,,0.00,WeatherDisplay:10.37,2013-02-17 14:15:00,
2013-02-17 09:20:00,9.3,2.1,29.66,NNE,22,21.9,21.9,72,0.00,OVC,,0.00,WeatherDisplay:10.37,2013-02-17 14:20:00,
2013-02-17 09:25:00,9.5,2.3,29.66,NW,315,19.6,19.6,72,0.00,OVC,,0.00,WeatherDisplay:10.37,2013-02-17 14:25:00,
2013-02-17 09:30:00,9.1,1.9,29.66,WNW,292,24.2,24.2,72,0.00,OVC,,0.00,WeatherDisplay:10.37,2013-02-17 14:30:00,
2013-02-17 09:35:00,9.1,1.9,29.66,North,360,25.3,25.3,72,0.00,OVC,,0.00,WeatherDisplay:10.37,2013-02-17 14:35:00,
2013-02-17 09:40:00,9.1,1.9,29.66,NW,315,29.9,29.9,72,0.00,OVC,,0.00,WeatherDisplay:10.37,2013-02-17 14:40:00,
2013-02-17 09:45:00,9.2,2.0,29.66,North,360,18.4,18.4,72,0.00,OVC,,0.00,WeatherDisplay:10.37,2013-02-17 14:45:00,
2013-02-17 09:50:00,9.6,2.3,29.66,NW,315,25.3,25.3,72,0.00,OVC,,0.00,WeatherDisplay:10.37,2013-02-17 14:50:00,
2013-02-17 09:55:00,10.1,2.8,29.66,NNE,22,21.7,21.7,72,0.00,OVC,,0.00,WeatherDisplay:10.37,2013-02-17 14:55:00,
2013-02-17 10:00:00,10.2,3.0,29.66,NW,315,26.5,26.5,72,0.00,OVC,,0.00,WeatherDisplay:10.37,2013-02-17 15:00:00,
2013-02-17 10:05:00,10.1,1.0,29.65,West,270,35.7,35.7,66,0.00,OVC,,0.00,WeatherDisplay:10.37,2013-02-17 15:05:00,
2013-02-17 10:10:00,10.0,0.8,29.65,NW,315,29.9,29.9,66,0.00,OVC,,0.00,WeatherDisplay:10.37,2013-02-17 15:10:00,
2013-02-17 10:15:00,10.2,1.1,29.65,North,360,27.6,27.6,66,0.00,OVC,,0.00,WeatherDisplay:10.37,2013-02-17 15:15:00,
2013-02-17 10:20:00,10.2,1.1,29.65,NW,315,28.8,28.8,66,0.00,OVC,,0.00,WeatherDisplay:10.37,2013-02-17 15:20:00,
2013-02-17 10:25:00,10.0,0.9,29.65,NNW,338,36.8,36.8,66,0.00,OVC,,0.00,WeatherDisplay:10.37,2013-02-17 15:25:00,
2013-02-17 10:30:00,10.1,1.0,29.65,WNW,292,34.5,34.5,66,0.00,OVC,,0.00,WeatherDisplay:10.37,2013-02-17 15:30:00,
2013-02-17 10:35:00,10.3,1.2,29.65,WNW,292,35.6,35.6,66,0.00,OVC,,0.00,WeatherDisplay:10.37,2013-02-17 15:35:00,
2013-02-17 10:40:00,10.5,1.4,29.65,NW,315,26.4,26.4,66,0.00,OVC,,0.00,WeatherDisplay:10.37,2013-02-17 15:40:00,
2013-02-17 10:45:00,10.5,1.3,29.65,NNW,338,27.6,27.6,66,0.00,OVC,,0.00,WeatherDisplay:10.37,2013-02-17 15:45:00,
2013-02-17 10:50:00,10.5,1.4,29.65,East,90,28.8,28.8,66,0.00,OVC,,0.00,WeatherDisplay:10.37,2013-02-17 15:50:00,
2013-02-17 10:55:00,10.5,1.3,29.65,WNW,292,37.2,37.2,66,0.00,OVC,,0.00,WeatherDisplay:10.37,2013-02-17 15:55:00,
2013-02-17 11:00:00,10.8,1.7,29.65,NNW,338,21.7,21.7,66,0.00,OVC,,0.00,WeatherDisplay:10.37,2013-02-17 16:00:00,
2013-02-17 11:05:00,10.5,1.4,29.65,NW,315,19.6,19.6,66,0.00,OVC,,0.00,WeatherDisplay:10.37,2013-02-17 16:05:00,
2013-02-17 11:11:00,10.6,1.4,29.65,NW,315,27.6,27.6,66,0.00,OVC,,0.00,WeatherDisplay:10.37,2013-02-17 16:11:00,
2013-02-17 11:16:00,10.8,1.7,29.65,NW,315,35.7,35.7,66,0.00,OVC,,0.00,WeatherDisplay:10.37,2013-02-17 16:16:00,
2013-02-17 11:21:00,10.2,1.1,29.65,NNW,338,33.4,33.4,66,0.00,OVC,,0.00,WeatherDisplay:10.37,2013-02-17 16:21:00,
2013-02-17 11:26:00,10.5,3.2,29.64,NW,315,25.9,25.9,72,0.00,OVC,,0.00,WeatherDisplay:10.37,2013-02-17 16:26:00,
2013-02-17 11:31:00,10.3,3.1,29.64,NNE,22,25.3,25.3,72,0.00,OVC,,0.00,WeatherDisplay:10.37,2013-02-17 16:31:00,
2013-02-17 11:36:00,10.5,3.2,29.64,NW,315,27.6,27.6,72,0.00,OVC,,0.00,WeatherDisplay:10.37,2013-02-17 16:36:00,
2013-02-17 11:41:00,9.9,2.7,29.64,NNW,338,31.1,31.1,72,0.00,OVC,,0.00,WeatherDisplay:10.37,2013-02-17 16:41:00,
2013-02-17 11:46:00,10.0,2.7,29.64,NW,315,32.2,32.2,72,0.00,OVC,,0.00,WeatherDisplay:10.37,2013-02-17 16:46:00,
2013-02-17 11:51:00,9.7,2.5,29.64,NNW,338,33.4,33.4,72,0.00,OVC,,0.00,WeatherDisplay:10.37,2013-02-17 16:51:00,
2013-02-17 11:56:00,10.1,2.8,29.64,WNW,292,35.7,35.7,72,0.00,OVC,,0.00,WeatherDisplay:10.37,2013-02-17 16:56:00,
2013-02-17 12:01:00,9.9,2.7,29.63,NW,315,34.5,34.5,72,0.00,OVC,,0.00,WeatherDisplay:10.37,2013-02-17 17:01:00,
2013-02-17 12:06:00,10.6,3.4,29.63,NW,315,18.4,18.4,72,0.00,OVC,,0.00,WeatherDisplay:10.37,2013-02-17 17:06:00,
2013-02-17 12:11:00,10.1,2.9,29.63,East,90,36.8,36.8,72,0.00,OVC,,0.00,WeatherDisplay:10.37,2013-02-17 17:11:00,
2013-02-17 12:16:00,10.2,3.0,29.63,NW,315,38.0,38.0,72,0.00,OVC,,0.00,WeatherDisplay:10.37,2013-02-17 17:16:00,
2013-02-17 12:21:00,10.1,2.8,29.63,NW,315,36.8,36.8,72,0.00,OVC,,0.00,WeatherDisplay:10.37,2013-02-17 17:21:00,
2013-02-17 12:26:00,10.7,3.4,29.63,NW,315,32.2,32.2,72,0.00,OVC,,0.00,WeatherDisplay:10.37,2013-02-17 17:26:00,
2013-02-17 12:31:00,10.7,3.4,29.63,WNW,292,36.8,36.8,72,0.00,OVC,,0.00,WeatherDisplay:10.37,2013-02-17 17:31:00,
2013-02-17 12:36:00,11.0,3.7,29.63,NNW,338,25.1,25.1,72,0.00,OVC,,0.00,WeatherDisplay:10.37,2013-02-17 17:36:00,
2013-02-17 12:41:00,11.2,4.0,29.63,NW,315,20.7,20.7,72,0.00,OVC,,0.00,WeatherDisplay:10.37,2013-02-17 17:41:00,
2013-02-17 12:47:00,11.2,3.9,29.63,NW,315,34.5,34.5,72,0.00,OVC,,0.00,WeatherDisplay:10.37,2013-02-17 17:47:00,
2013-02-17 12:52:00,11.3,4.0,29.63,WNW,292,43.7,43.7,72,0.00,OVC,,0.00,WeatherDisplay:10.37,2013-02-17 17:52:00,
2013-02-17 12:57:00,10.9,3.6,29.63,North,360,31.1,31.1,72,0.00,OVC,,0.00,WeatherDisplay:10.37,2013-02-17 17:57:00,
2013-02-17 13:02:00,11.8,2.6,29.62,NE,45,21.9,21.9,66,0.00,BKN,,0.00,WeatherDisplay:10.37,2013-02-17 18:02:00,
2013-02-17 13:07:00,11.8,2.6,29.62,NW,315,21.9,21.9,66,0.00,BKN,,0.00,WeatherDisplay:10.37,2013-02-17 18:07:00,
2013-02-17 13:12:00,11.8,2.6,29.62,WNW,292,32.0,32.0,66,0.00,BKN,,0.00,WeatherDisplay:10.37,2013-02-17 18:12:00,
2013-02-17 13:17:00,11.6,2.4,29.62,North,360,26.5,26.5,66,0.00,BKN,,0.00,WeatherDisplay:10.37,2013-02-17 18:17:00,
2013-02-17 13:22:00,11.7,2.5,29.62,NW,315,28.4,28.4,66,0.00,BKN,,0.00,WeatherDisplay:10.37,2013-02-17 18:22:00,
2013-02-17 13:27:00,11.8,2.6,29.62,North,360,29.9,29.9,66,0.00,BKN,,0.00,WeatherDisplay:10.37,2013-02-17 18:27:00,
2013-02-17 13:32:00,11.4,2.2,29.62,NNW,338,35.7,35.7,66,0.00,BKN,,0.00,WeatherDisplay:10.37,2013-02-17 18:32:00,
2013-02-17 13:37:00,12.3,3.1,29.62,NNW,338,24.7,24.7,66,0.00,BKN,,0.00,WeatherDisplay:10.37,2013-02-17 18:37:00,
2013-02-17 13:42:00,12.4,3.2,29.62,WNW,292,25.3,25.3,66,0.00,BKN,,0.00,WeatherDisplay:10.37,2013-02-17 18:42:00,
2013-02-17 13:47:00,12.5,3.3,29.62,NW,315,17.3,17.3,66,0.00,BKN,,0.00,WeatherDisplay:10.37,2013-02-17 18:47:00,
2013-02-17 13:52:00,12.3,3.1,29.62,West,270,27.6,27.6,66,0.00,BKN,,0.00,WeatherDisplay:10.37,2013-02-17 18:52:00,
2013-02-17 13:57:00,12.5,3.3,29.62,NW,315,17.6,17.6,66,0.00,BKN,,0.00,WeatherDisplay:10.37,2013-02-17 18:57:00,
2013-02-17 14:02:00,12.5,1.6,29.61,WNW,292,21.9,21.9,61,0.00,OVC,,0.00,WeatherDisplay:10.37,2013-02-17 19:02:00,
2013-02-17 14:08:00,12.9,2.0,29.61,NNW,338,31.1,31.1,61,0.00,OVC,,0.00,WeatherDisplay:10.37,2013-02-17 19:08:00,
2013-02-17 14:13:00,12.5,1.6,29.61,North,360,17.3,17.3,61,0.00,OVC,,0.00,WeatherDisplay:10.37,2013-02-17 19:13:00,
2013-02-17 14:18:00,12.8,1.9,29.61,NNW,338,21.9,21.9,61,0.00,OVC,,0.00,WeatherDisplay:10.37,2013-02-17 19:18:00,
2013-02-17 14:23:00,12.6,1.7,29.61,NE,45,25.3,25.3,61,0.00,OVC,,0.00,WeatherDisplay:10.37,2013-02-17 19:23:00,
2013-02-17 14:28:00,12.5,1.6,29.61,North,360,26.5,26.5,61,0.00,OVC,,0.00,WeatherDisplay:10.37,2013-02-17 19:28:00,
2013-02-17 14:33:00,12.6,1.7,29.61,NW,315,31.1,31.1,61,0.00,OVC,,0.00,WeatherDisplay:10.37,2013-02-17 19:33:00,
2013-02-17 14:38:00,12.5,1.6,29.61,North,360,20.7,20.7,61,0.00,OVC,,0.00,WeatherDisplay:10.37,2013-02-17 19:38:00,
2013-02-17 14:43:00,12.8,1.8,29.61,NNW,338,26.5,26.5,61,0.00,OVC,,0.00,WeatherDisplay:10.37,2013-02-17 19:43:00,
2013-02-17 14:48:00,12.9,2.0,29.61,NW,315,19.6,19.6,61,0.00,OVC,,0.00,WeatherDisplay:10.37,2013-02-17 19:48:00,
2013-02-17 14:53:00,12.9,2.0,29.61,NW,315,21.9,21.9,61,0.00,OVC,,0.00,WeatherDisplay:10.37,2013-02-17 19:53:00,
2013-02-17 14:58:00,12.8,1.8,29.61,West,270,33.4,33.4,61,0.00,OVC,,0.00,WeatherDisplay:10.37,2013-02-17 19:58:00,
2013-02-17 15:03:00,13.2,-1.2,29.61,North,360,25.3,25.3,52,0.00,SCT,,0.00,WeatherDisplay:10.37,2013-02-17 20:03:00,
2013-02-17 15:08:00,12.7,-1.6,29.61,NNW,338,24.2,24.2,52,0.00,SCT,,0.00,WeatherDisplay:10.37,2013-02-17 20:08:00,
2013-02-17 15:13:00,13.0,-1.3,29.61,NNW,338,27.6,27.6,52,0.00,SCT,,0.00,WeatherDisplay:10.37,2013-02-17 20:13:00,
2013-02-17 15:18:00,13.4,-0.9,29.61,NNW,338,31.1,31.1,52,0.00,SCT,,0.00,WeatherDisplay:10.37,2013-02-17 20:18:00,
2013-02-17 15:23:00,13.6,-0.8,29.61,North,360,18.4,18.4,52,0.00,SCT,,0.00,WeatherDisplay:10.37,2013-02-17 20:23:00,
2013-02-17 15:28:00,13.6,-0.8,29.61,WNW,292,24.2,24.2,52,0.00,SCT,,0.00,WeatherDisplay:10.37,2013-02-17 20:28:00,
2013-02-17 15:33:00,13.4,-1.0,29.61,NNW,338,20.7,20.7,52,0.00,SCT,,0.00,WeatherDisplay:10.37,2013-02-17 20:33:00,
2013-02-17 15:38:00,13.3,-1.0,29.61,NNW,338,25.3,25.3,52,0.00,SCT,,0.00,WeatherDisplay:10.37,2013-02-17 20:38:00,
2013-02-17 15:43:00,13.0,-1.4,29.61,NW,315,36.8,36.8,52,0.00,SCT,,0.00,WeatherDisplay:10.37,2013-02-17 20:43:00,
2013-02-17 15:48:00,13.0,-1.3,29.61,NE,45,36.8,36.8,52,0.00,SCT,,0.00,WeatherDisplay:10.37,2013-02-17 20:48:00,
2013-02-17 15:53:00,13.3,-1.0,29.61,North,360,26.5,26.5,52,0.00,SCT,,0.00,WeatherDisplay:10.37,2013-02-17 20:53:00,
2013-02-17 15:58:00,13.3,-1.1,29.61,NW,315,33.4,33.4,52,0.00,SCT,,0.00,WeatherDisplay:10.37,2013-02-17 20:58:00,
2013-02-17 16:03:00,13.4,-1.0,29.61,NNW,338,27.6,27.6,52,0.00,FEW,,0.00,WeatherDisplay:10.37,2013-02-17 21:03:00,
2013-02-17 16:08:00,13.6,-0.8,29.61,NW,315,28.8,28.8,52,0.00,FEW,,0.00,WeatherDisplay:10.37,2013-02-17 21:08:00,
2013-02-17 16:13:00,13.5,-0.9,29.61,NNW,338,12.7,12.7,52,0.00,FEW,,0.00,WeatherDisplay:10.37,2013-02-17 21:13:00,
2013-02-17 16:18:00,13.4,-1.0,29.61,North,360,17.3,17.3,52,0.00,FEW,,0.00,WeatherDisplay:10.37,2013-02-17 21:18:00,
2013-02-17 16:23:00,13.2,-1.2,29.61,NW,315,19.6,19.6,52,0.00,FEW,,0.00,WeatherDisplay:10.37,2013-02-17 21:23:00,
2013-02-17 16:28:00,13.0,-1.3,29.61,NW,315,22.6,22.6,52,0.00,FEW,,0.00,WeatherDisplay:10.37,2013-02-17 21:28:00,
2013-02-17 16:33:00,12.8,-1.5,29.61,NW,315,20.7,20.7,52,0.00,FEW,,0.00,WeatherDisplay:10.37,2013-02-17 21:33:00,
2013-02-17 16:38:00,12.8,-1.6,29.61,NNW,338,19.6,19.6,52,0.00,FEW,,0.00,WeatherDisplay:10.37,2013-02-17 21:38:00,
2013-02-17 16:44:00,12.5,-1.8,29.61,North,360,18.4,18.4,52,0.00,FEW,,0.00,WeatherDisplay:10.37,2013-02-17 21:44:00,
2013-02-17 16:49:00,12.5,-1.8,29.61,WNW,292,21.9,21.9,52,0.00,FEW,,0.00,WeatherDisplay:10.37,2013-02-17 21:49:00,
2013-02-17 16:54:00,12.1,-2.2,29.61,NNW,338,31.1,31.1,52,0.00,FEW,,0.00,WeatherDisplay:10.37,2013-02-17 21:54:00,
2013-02-17 16:59:00,12.1,-2.2,29.61,NNW,338,15.0,15.0,52,0.00,FEW,,0.00,WeatherDisplay:10.37,2013-02-17 21:59:00,
2013-02-17 17:04:00,11.8,-4.1,29.63,NNW,338,20.7,20.7,48,0.00,CLR,,0.00,WeatherDisplay:10.37,2013-02-17 22:04:00,
2013-02-17 17:09:00,11.6,-4.4,29.63,NNW,338,24.9,24.9,48,0.00,CLR,,0.00,WeatherDisplay:10.37,2013-02-17 22:09:00,
2013-02-17 17:14:00,11.5,-4.4,29.63,NW,315,18.4,18.4,48,0.00,CLR,,0.00,WeatherDisplay:10.37,2013-02-17 22:14:00,
2013-02-17 17:19:00,11.4,-9.9,29.63,NW,315,20.7,20.7,37,0.00,CLR,,0.00,WeatherDisplay:10.37,2013-02-17 22:19:00,
2013-02-17 17:25:00,11.2,6.8,29.63,NW,315,23.0,23.0,82,0.00,CLR,,0.00,WeatherDisplay:10.37,2013-02-17 22:25:00,
2013-02-17 17:30:00,11.3,10.4,29.63,NW,315,15.0,15.0,96,0.00,CLR,,0.00,WeatherDisplay:10.37,2013-02-17 22:30:00,
2013-02-17 17:35:00,10.9,9.9,29.63,NW,315,18.4,18.4,96,0.00,CLR,,0.00,WeatherDisplay:10.37,2013-02-17 22:35:00,
2013-02-17 17:40:00,10.6,9.7,29.63,NNW,338,28.8,28.8,96,0.00,CLR,,0.00,WeatherDisplay:10.37,2013-02-17 22:40:00,
2013-02-17 17:45:00,10.6,9.7,29.63,NW,315,22.9,22.9,96,0.00,CLR,,0.00,WeatherDisplay:10.37,2013-02-17 22:45:00,
2013-02-17 17:50:00,10.5,-2.9,29.63,North,360,15.0,15.0,54,0.00,CLR,,0.00,WeatherDisplay:10.37,2013-02-17 22:50:00,
2013-02-17 17:55:00,10.7,-3.1,29.63,WNW,292,18.4,18.4,53,0.00,CLR,,0.00,WeatherDisplay:10.37,2013-02-17 22:55:00,
2013-02-17 18:00:00,10.7,-3.1,29.63,WNW,292,23.0,23.0,53,0.00,CLR,,0.00,WeatherDisplay:10.37,2013-02-17 23:00:00,
2013-02-17 18:05:00,10.8,-3.0,29.66,NW,315,17.3,17.3,53,0.00,FEW,,0.00,WeatherDisplay:10.37,2013-02-17 23:05:00,
2013-02-17 18:10:00,11.0,-2.8,29.66,NNW,338,25.3,25.3,53,0.00,FEW,,0.00,WeatherDisplay:10.37,2013-02-17 23:10:00,
2013-02-17 18:15:00,11.0,-2.8,29.66,NW,315,26.5,26.5,53,0.00,FEW,,0.00,WeatherDisplay:10.37,2013-02-17 23:15:00,
2013-02-17 18:20:00,10.7,-3.1,29.66,NNW,338,16.1,16.1,53,0.00,FEW,,0.00,WeatherDisplay:10.37,2013-02-17 23:20:00,
2013-02-17 18:25:00,10.8,-3.0,29.66,NW,315,19.3,19.3,53,0.00,FEW,,0.00,WeatherDisplay:10.37,2013-02-17 23:25:00,
2013-02-17 18:30:00,10.6,-3.6,29.66,NW,315,25.3,25.3,52,0.00,FEW,,0.00,WeatherDisplay:10.37,2013-02-17 23:30:00,
2013-02-17 18:35:00,10.6,-3.6,29.66,NNE,22,33.4,33.4,52,0.00,FEW,,0.00,WeatherDisplay:10.37,2013-02-17 23:35:00,
2013-02-17 18:40:00,10.3,-3.8,29.66,West,270,23.0,23.0,52,0.00,FEW,,0.00,WeatherDisplay:10.37,2013-02-17 23:40:00,
2013-02-17 18:45:00,10.1,-4.1,29.66,NE,45,27.6,27.6,52,0.00,FEW,,0.00,WeatherDisplay:10.37,2013-02-17 23:45:00,
2013-02-17 18:50:00,9.8,-4.3,29.66,WNW,292,33.4,33.4,52,0.00,FEW,,0.00,WeatherDisplay:10.37,2013-02-17 23:50:00,
2013-02-17 18:55:00,9.9,-4.2,29.66,ESE,112,21.9,21.9,52,0.00,FEW,,0.00,WeatherDisplay:10.37,2013-02-17 23:55:00,
2013-02-17 19:00:00,9.7,-4.5,29.66,North,360,21.9,21.9,52,0.00,FEW,,0.00,WeatherDisplay:10.37,2013-02-18 00:00:00,
2013-02-17 19:05:00,9.4,-4.7,29.68,NW,315,23.4,23.4,52,0.00,BKN,,0.00,WeatherDisplay:10.37,2013-02-18 00:05:00,
2013-02-17 19:10:00,9.2,-5.3,29.68,NW,315,26.2,26.2,51,0.00,BKN,,0.00,WeatherDisplay:10.37,2013-02-18 00:10:00,
2013-02-17 19:15:00,9.1,-5.4,29.68,WNW,292,28.1,28.1,51,0.00,BKN,,0.00,WeatherDisplay:10.37,2013-02-18 00:15:00,
2013-02-17 19:20:00,8.8,-6.1,29.68,NNE,22,23.0,23.0,50,0.00,BKN,,0.00,WeatherDisplay:10.37,2013-02-18 00:20:00,
2013-02-17 19:26:00,8.9,-6.4,29.68,NNW,338,29.9,29.9,49,0.00,BKN,,0.00,WeatherDisplay:10.37,2013-02-18 00:26:00,
2013-02-17 19:31:00,8.6,-6.7,29.68,East,90,17.3,17.3,49,0.00,BKN,,0.00,WeatherDisplay:10.37,2013-02-18 00:31:00,
2013-02-17 19:36:00,8.5,-6.7,29.68,NW,315,31.1,31.1,49,0.00,BKN,,0.00,WeatherDisplay:10.37,2013-02-18 00:36:00,
2013-02-17 19:41:00,8.4,-6.8,29.68,NNW,338,19.6,19.6,49,0.00,BKN,,0.00,WeatherDisplay:10.37,2013-02-18 00:41:00,
2013-02-17 19:46:00,8.2,-7.5,29.68,NNW,338,34.5,34.5,48,0.00,BKN,,0.00,WeatherDisplay:10.37,2013-02-18 00:46:00,
2013-02-17 19:51:00,8.2,-7.5,29.68,NW,315,26.5,26.5,48,0.00,BKN,,0.00,WeatherDisplay:10.37,2013-02-18 00:51:00,
2013-02-17 19:56:00,7.8,-7.9,29.68,WNW,292,26.5,26.5,48,0.00,BKN,,0.00,WeatherDisplay:10.37,2013-02-18 00:56:00,
2013-02-17 20:01:00,7.7,-7.9,29.71,West,270,21.9,21.9,48,0.00,SCT,,0.00,WeatherDisplay:10.37,2013-02-18 01:01:00,
2013-02-17 20:06:00,7.7,-7.9,29.71,South,180,20.7,20.7,48,0.00,SCT,,0.00,WeatherDisplay:10.37,2013-02-18 01:06:00,
2013-02-17 20:11:00,7.5,-8.1,29.71,NNW,338,13.8,13.8,48,0.00,SCT,,0.00,WeatherDisplay:10.37,2013-02-18 01:11:00,
2013-02-17 20:16:00,7.4,-8.3,29.71,NW,315,24.2,24.2,48,0.00,SCT,,0.00,WeatherDisplay:10.37,2013-02-18 01:16:00,
2013-02-17 20:21:00,7.1,-8.5,29.71,NNW,338,24.2,24.2,48,0.00,SCT,,0.00,WeatherDisplay:10.37,2013-02-18 01:21:00,
2013-02-17 20:27:00,7.0,-8.6,29.71,NW,315,25.3,25.3,48,0.00,SCT,,0.00,WeatherDisplay:10.37,2013-02-18 01:27:00,
2013-02-17 20:32:00,7.0,-8.6,29.71,North,360,29.9,29.9,48,0.00,SCT,,0.00,WeatherDisplay:10.37,2013-02-18 01:32:00,
2013-02-17 20:37:00,6.9,-8.7,29.71,NNW,338,26.5,26.5,48,0.00,SCT,,0.00,WeatherDisplay:10.37,2013-02-18 01:37:00,
2013-02-17 20:43:00,6.7,-8.8,29.71,North,360,28.8,28.8,48,0.00,SCT,,0.00,WeatherDisplay:10.37,2013-02-18 01:43:00,
2013-02-17 20:48:00,6.6,-8.9,29.71,NNW,338,23.0,23.0,48,0.00,SCT,,0.00,WeatherDisplay:10.37,2013-02-18 01:48:00,
2013-02-17 20:53:00,6.6,-9.0,29.71,NNW,338,26.5,26.5,48,0.00,SCT,,0.00,WeatherDisplay:10.37,2013-02-18 01:53:00,
2013-02-17 20:58:00,6.6,-8.9,29.71,NW,315,28.8,28.8,48,0.00,SCT,,0.00,WeatherDisplay:10.37,2013-02-18 01:58:00,
2013-02-17 21:03:00,6.6,-9.0,29.73,SSW,202,27.6,27.6,48,0.00,BKN,,0.00,WeatherDisplay:10.37,2013-02-18 02:03:00,
2013-02-17 21:08:00,6.4,-8.8,29.73,NNW,338,18.4,18.4,49,0.00,BKN,,0.00,WeatherDisplay:10.37,2013-02-18 02:08:00,
2013-02-17 21:13:00,6.4,-8.8,29.73,WNW,292,26.5,26.5,49,0.00,BKN,,0.00,WeatherDisplay:10.37,2013-02-18 02:13:00,
2013-02-17 21:18:00,6.5,-8.3,29.73,NW,315,20.7,20.7,50,0.00,BKN,,0.00,WeatherDisplay:10.37,2013-02-18 02:18:00,
2013-02-17 21:23:00,6.6,-8.1,29.73,NW,315,27.6,27.6,50,0.00,BKN,,0.00,WeatherDisplay:10.37,2013-02-18 02:23:00,
2013-02-17 21:28:00,6.5,-8.2,29.73,NW,315,25.1,25.1,50,0.00,BKN,,0.00,WeatherDisplay:10.37,2013-02-18 02:28:00,
2013-02-17 21:33:00,6.2,-8.5,29.73,NE,45,16.1,16.1,50,0.00,BKN,,0.00,WeatherDisplay:10.37,2013-02-18 02:33:00,
2013-02-17 21:38:00,6.4,-8.4,29.73,NE,45,25.3,25.3,50,0.00,BKN,,0.00,WeatherDisplay:10.37,2013-02-18 02:38:00,
2013-02-17 21:43:00,6.1,-8.2,29.73,NW,315,18.4,18.4,51,0.00,BKN,,0.00,WeatherDisplay:10.37,2013-02-18 02:43:00,
2013-02-17 21:48:00,6.2,-8.1,29.73,NW,315,27.6,27.6,51,0.00,BKN,,0.00,WeatherDisplay:10.37,2013-02-18 02:48:00,
2013-02-17 21:53:00,6.1,-8.2,29.73,NNW,338,24.2,24.2,51,0.00,BKN,,0.00,WeatherDisplay:10.37,2013-02-18 02:53:00,
2013-02-17 21:58:00,6.0,-8.3,29.73,NW,315,26.5,26.5,51,0.00,BKN,,0.00,WeatherDisplay:10.37,2013-02-18 02:58:00,
2013-02-17 22:03:00,6.0,-8.3,29.74,NNW,338,20.7,20.7,51,0.00,OVC,,0.00,WeatherDisplay:10.37,2013-02-18 03:03:00,
2013-02-17 22:08:00,5.8,-8.4,29.74,NW,315,29.9,29.9,51,0.00,OVC,,0.00,WeatherDisplay:10.37,2013-02-18 03:08:00,
2013-02-17 22:13:00,5.9,-8.4,29.74,NW,315,33.4,33.4,51,0.00,OVC,,0.00,WeatherDisplay:10.37,2013-02-18 03:13:00,
2013-02-17 22:18:00,6.1,-8.2,29.74,NW,315,26.5,26.5,51,0.00,OVC,,0.00,WeatherDisplay:10.37,2013-02-18 03:18:00,
2013-02-17 22:23:00,5.8,-8.4,29.74,West,270,21.9,21.9,51,0.00,OVC,,0.00,WeatherDisplay:10.37,2013-02-18 03:23:00,
2013-02-17 22:28:00,5.8,-8.5,29.74,NW,315,32.2,32.2,51,0.00,OVC,,0.00,WeatherDisplay:10.37,2013-02-18 03:28:00,
2013-02-17 22:33:00,5.8,-8.4,29.74,NW,315,19.6,19.6,51,0.00,OVC,,0.00,WeatherDisplay:10.37,2013-02-18 03:33:00,
2013-02-17 22:38:00,5.7,-8.5,29.74,NNE,22,26.5,26.5,51,0.00,OVC,,0.00,WeatherDisplay:10.37,2013-02-18 03:38:00,
2013-02-17 22:43:00,5.7,-8.5,29.74,North,360,20.7,20.7,51,0.00,OVC,,0.00,WeatherDisplay:10.37,2013-02-18 03:43:00,
2013-02-17 22:48:00,5.7,-8.6,29.74,NW,315,26.5,26.5,51,0.00,OVC,,0.00,WeatherDisplay:10.37,2013-02-18 03:48:00,
2013-02-17 22:53:00,5.6,-8.6,29.74,ENE,68,34.5,34.5,51,0.00,OVC,,0.00,WeatherDisplay:10.37,2013-02-18 03:53:00,
2013-02-17 22:58:00,5.8,-8.5,29.74,WNW,292,31.1,31.1,51,0.00,OVC,,0.00,WeatherDisplay:10.37,2013-02-18 03:58:00,
2013-02-17 23:03:00,5.6,-8.3,29.77,NNW,338,34.5,34.5,52,0.00,OVC,,0.00,WeatherDisplay:10.37,2013-02-18 04:03:00,
2013-02-17 23:08:00,5.7,-8.2,29.77,North,360,27.6,27.6,52,0.00,OVC,,0.00,WeatherDisplay:10.37,2013-02-18 04:08:00,
2013-02-17 23:13:00,5.6,-7.8,29.77,NW,315,25.9,25.9,53,0.00,OVC,,0.00,WeatherDisplay:10.37,2013-02-18 04:13:00,
2013-02-17 23:18:00,5.5,-8.0,29.77,NW,315,27.6,27.6,53,0.00,OVC,,0.00,WeatherDisplay:10.37,2013-02-18 04:18:00,
2013-02-17 23:23:00,5.6,-7.1,29.77,NW,315,28.8,28.8,55,0.00,OVC,,0.00,WeatherDisplay:10.37,2013-02-18 04:23:00,
2013-02-17 23:28:00,5.5,-7.2,29.77,NW,315,21.9,21.9,55,0.00,OVC,,0.00,WeatherDisplay:10.37,2013-02-18 04:28:00,
2013-02-17 23:33:00,5.5,-6.8,29.77,WNW,292,32.2,32.2,56,0.00,OVC,,0.00,WeatherDisplay:10.37,2013-02-18 04:33:00,
2013-02-17 23:38:00,5.4,-6.9,29.77,WNW,292,29.9,29.9,56,0.00,OVC,,0.00,WeatherDisplay:10.37,2013-02-18 04:38:00,
2013-02-17 23:43:00,5.2,-7.1,29.77,WNW,292,33.7,33.7,56,0.00,OVC,,0.00,WeatherDisplay:10.37,2013-02-18 04:43:00,
2013-02-17 23:48:00,5.2,-7.1,29.77,WNW,292,18.4,18.4,56,0.00,OVC,,0.00,WeatherDisplay:10.37,2013-02-18 04:48:00,
2013-02-17 23:53:00,5.2,-7.1,29.77,WNW,292,38.0,38.0,56,0.00,OVC,,0.00,WeatherDisplay:10.37,2013-02-18 04:53:00,
2013-02-17 23:58:00,5.1,-7.2,29.77,NW,315,26.5,26.5,56,0.00,OVC,,0.00,WeatherDisplay:10.37,2013-02-18 04:58:00,